Latest Weather Observations for Merimbula

IDN60801

Issued at 8:53 am EDT Friday 9 December 2022 (issued every 10 minutes, with the page automatically refreshed every 10 minutes)

About weather observations | Map of weather stations | Latest weather observations for NSW | Other Formats
Station Details ID: 069147 Name: MERIMBULA AIRPORT AWS Lat: -36.91 Lon: 149.90 Height: 1.5 m
Data from the previous 72 hours. | See also: Recent months at Merimbula
Date/Time
EDT
Temp
°C
App
Temp
°C
Dew
Point
°C
Rel
Hum
%
Delta-T
°C
Wind Press
QNH
hPa
Press
MSL
hPa
Rain since
9am
mm
Dir  Spd
km/h
Gust
km/h
Spd
kts
Gust
kts
09/08:30am 15.3 11.4 5.2 51 4.8 SW 15 26 8 14 1014.3 1014.3 0.0
09/08:00am 13.9 9.9 4.8 54 4.2 WNW 15 22 8 12 1014.1 1014.1 0.0
09/07:30am 11.3 7.6 4.5 63 3.1 W 13 22 7 12 1014.1 1014.1 0.0
09/07:00am 11.0 7.3 4.2 63 3.0 W 13 22 7 12 1014.0 1014.0 0.0
09/06:30am 10.3 5.7 3.8 64 2.9 W 17 24 9 13 1013.8 1013.8 0.0
09/06:00am 9.9 5.3 3.6 65 2.7 W 17 28 9 15 1013.4 1013.4 0.0
09/05:30am 9.5 4.9 3.7 67 2.5 WNW 17 22 9 12 1013.1 1013.1 0.0
09/05:00am 9.4 6.3 3.6 67 2.5 WNW 9 13 5 7 1012.7 1012.7 0.0
09/04:30am 9.8 5.8 3.1 63 2.9 WNW 13 20 7 11 1012.7 1012.7 0.0
09/04:00am 10.2 6.6 3.0 61 3.1 WNW 11 19 6 10 1012.8 1012.8 0.0
09/03:30am 10.4 6.1 3.0 60 3.2 W 15 26 8 14 1012.7 1012.7 0.0
09/03:00am 10.9 5.8 3.2 59 3.4 W 19 28 10 15 1012.4 1012.4 0.0
09/02:30am 11.1 6.1 3.6 60 3.3 WSW 19 26 10 14 1012.8 1012.8 0.0
09/02:00am 10.6 7.2 4.1 64 2.9 W 11 20 6 11 1013.2 1013.2 0.0
09/01:30am 11.1 8.1 3.9 61 3.2 WSW 9 19 5 10 1013.2 1013.2 0.0
09/01:00am 11.5 8.5 4.0 60 3.3 W 9 19 5 10 1013.5 1013.5 0.0
09/12:30am 11.6 7.9 4.6 62 3.2 WSW 13 28 7 15 1013.5 1013.5 0.0
09/12:00am 11.7 8.5 4.9 63 3.1 WSW 11 20 6 11 1013.3 1013.3 0.0
 
Date/Time
EDT
Temp
°C
App
Temp
°C
Dew
Point
°C
Rel
Hum
%
Delta-T
°C
Wind Press
QNH
hPa
Press
MSL
hPa
Rain since
9am
mm
Dir  Spd
km/h
Gust
km/h
Spd
kts
Gust
kts
08/11:30pm 11.8 9.0 5.0 63 3.1 WSW 9 13 5 7 1013.4 1013.4 0.0
08/11:00pm 12.0 9.2 5.0 62 3.2 SSW 9 19 5 10 1013.3 1013.3 0.0
08/10:30pm 12.6 8.3 5.1 60 3.5 SW 17 32 9 17 1013.2 1013.2 0.0
08/10:00pm 12.7 8.7 5.1 60 3.5 SW 15 35 8 19 1013.1 1013.1 0.0
08/09:30pm 13.1 8.4 5.3 59 3.6 SW 19 28 10 15 1012.7 1012.7 0.0
08/09:00pm 13.4 9.4 4.8 56 4.0 SW 15 20 8 11 1012.3 1012.3 0.0
08/08:30pm 13.8 9.4 4.7 54 4.2 WSW 17 35 9 19 1011.8 1011.8 0.0
08/08:00pm 14.3 9.9 4.9 53 4.4 SW 17 26 9 14 1011.3 1011.3 0.0
08/07:30pm 15.7 11.2 4.1 46 5.4 WSW 17 32 9 17 1010.8 1010.8 0.0
08/07:00pm 16.4 11.1 4.8 46 5.5 WSW 22 39 12 21 1010.2 1010.2 0.0
08/06:30pm 17.0 11.3 5.0 45 5.7 SW 24 39 13 21 1009.6 1009.6 0.0
08/06:00pm 17.8 13.1 6.0 46 5.8 WSW 20 35 11 19 1009.1 1009.1 0.0
08/05:30pm 17.9 11.0 4.5 41 6.4 WSW 30 48 16 26 1008.6 1008.6 0.0
08/05:22pm 18.2 11.5 3.7 38 6.8 WSW 28 46 15 25 1008.5 1008.5 0.0
08/05:00pm 18.6 12.3 3.6 37 7.1 WSW 26 43 14 23 1008.3 1008.3 0.0
08/04:30pm 18.6 11.8 3.3 36 7.1 WSW 28 48 15 26 1008.4 1008.4 0.0
08/04:26pm 19.3 12.5 3.1 34 7.6 WSW 28 46 15 25 1008.3 1008.3 0.0
08/04:00pm 18.9 13.1 4.3 38 7.0 WSW 24 39 13 21 1008.1 1008.1 0.0
08/03:34pm 17.7 11.2 4.6 42 6.2 SW 28 46 15 25 1008.3 1008.3 0.0
08/03:30pm 17.5 11.6 4.1 41 6.3 WSW 24 46 13 25 1008.1 1008.1 0.0
08/03:00pm 17.9 10.5 3.8 39 6.6 WSW 32 56 17 30 1008.1 1008.1 0.0
08/02:54pm 17.8 11.3 4.7 42 6.2 SW 28 46 15 25 1008.0 1008.0 0.0
08/02:30pm 18.4 12.7 4.9 41 6.5 WSW 24 41 13 22 1008.0 1008.0 0.0
08/02:00pm 17.0 11.1 3.7 41 6.2 SW 24 57 13 31 1007.5 1007.5 0.0
08/01:30pm 18.2 11.4 2.9 36 7.1 W 28 56 15 30 1007.3 1007.3 0.0
08/01:11pm 18.7 11.8 2.5 34 7.4 WSW 28 50 15 27 1007.1 1007.1 0.0
08/01:00pm 18.7 12.3 3.3 36 7.2 SW 26 48 14 26 1006.9 1006.9 0.0
08/12:41pm 17.6 10.9 1.2 33 7.3 WSW 26 61 14 33 1007.0 1007.0 0.0
08/12:30pm 17.3 11.2 2.5 37 6.7 SW 24 43 13 23 1006.9 1006.9 0.0
08/12:00pm 17.4 9.6 2.6 37 6.8 WSW 33 54 18 29 1007.1 1007.1 0.0
08/11:43am 17.1 10.4 3.4 40 6.3 SW 28 48 15 26 1007.1 1007.1 0.0
08/11:30am 16.2 9.1 1.5 37 6.5 WSW 28 44 15 24 1007.1 1007.1 0.0
08/11:25am 16.8 9.9 2.4 38 6.5 WSW 28 54 15 29 1007.1 1007.1 0.0
08/11:00am 16.3 10.0 1.6 37 6.5 WSW 24 48 13 26 1007.0 1007.0 0.0
08/10:30am 16.8 11.0 2.4 38 6.5 WSW 22 35 12 19 1006.8 1006.8 0.0
08/10:11am 15.5 8.4 1.6 39 6.1 W 28 54 15 29 1006.8 1006.8 0.0
08/10:00am 16.0 10.2 2.4 40 6.1 W 22 41 12 22 1006.8 1006.8 0.0
08/09:30am 15.6 10.3 3.1 43 5.7 W 20 32 11 17 1006.7 1006.7 0.0
08/09:04am 14.4 7.1 2.3 44 5.3 WSW 30 50 16 27 1006.7 1006.7 0.0
08/09:00am 14.8 8.3 2.4 43 5.5 WSW 26 43 14 23 1006.7 1006.7 4.6
08/08:30am 14.6 9.3 3.1 46 5.2 WSW 20 32 11 17 1006.2 1006.2 4.6
08/08:00am 13.9 10.3 2.8 47 4.9 W 11 20 6 11 1005.7 1005.7 4.6
08/07:30am 13.0 9.2 3.9 54 4.1 W 13 20 7 11 1005.8 1005.8 4.6
08/07:00am 12.1 7.5 3.9 57 3.7 WNW 17 24 9 13 1005.4 1005.4 4.6
08/06:30am 11.3 6.2 2.9 56 3.7 W 19 32 10 17 1005.5 1005.5 4.6
08/06:00am 11.2 4.7 2.5 55 3.8 WSW 26 44 14 24 1004.9 1004.9 4.6
08/05:30am 11.3 4.8 2.9 56 3.7 WSW 26 41 14 22 1004.5 1004.5 4.6
08/05:10am 11.3 4.5 3.3 58 3.5 WSW 28 48 15 26 1004.3 1004.3 4.6
08/05:00am 11.1 5.5 3.6 60 3.3 WSW 22 33 12 18 1004.3 1004.3 4.6
08/04:30am 11.5 7.6 5.4 66 2.8 WSW 15 22 8 12 1004.0 1004.0 4.6
08/04:00am 11.5 6.8 5.2 65 2.9 SW 19 28 10 15 1004.0 1004.0 4.6
08/03:32am 11.6 5.4 6.3 70 2.5 WSW 28 50 15 27 1004.0 1004.0 4.6
08/03:30am 11.5 5.8 6.6 72 2.3 WSW 26 50 14 27 1004.0 1004.0 4.6
08/03:00am 12.1 8.3 9.7 85 1.2 WSW 20 30 11 16 1003.9 1003.9 4.6
08/02:30am 12.1 9.7 11.3 95 0.4 SSW 15 24 8 13 1003.5 1003.5 4.4
08/02:00am 12.2 11.0 11.7 97 0.3 S 9 15 5 8 1003.6 1003.6 4.2
08/01:30am 12.5 11.4 11.9 96 0.3 S 9 15 5 8 1003.4 1003.4 3.2
08/01:00am 12.5 11.0 12.0 97 0.3 S 11 15 6 8 1003.5 1003.5 3.0
08/12:30am 12.7 10.8 11.9 95 0.4 SSW 13 22 7 12 1004.0 1004.0 2.8
08/12:00am 13.3 12.1 12.7 96 0.3 SW 11 20 6 11 1003.6 1003.6 1.8
 
Date/Time
EDT
Temp
°C
App
Temp
°C
Dew
Point
°C
Rel
Hum
%
Delta-T
°C
Wind Press
QNH
hPa
Press
MSL
hPa
Rain since
9am
mm
Dir  Spd
km/h
Gust
km/h
Spd
kts
Gust
kts
07/11:30pm 13.4 12.9 12.8 96 0.3 WSW 7 15 4 8 1003.9 1003.9 1.8
07/11:22pm 13.4 13.5 12.8 96 0.3 WNW 4 11 2 6 1003.5 1003.5 1.8
07/11:01pm 13.4 11.7 12.6 95 0.4 SSW 13 20 7 11 1002.7 1002.7 0.8
07/11:00pm 13.5 11.9 12.7 95 0.4 SSW 13 20 7 11 1002.7 1002.7 0.8
07/10:30pm 14.2 12.0 12.2 88 1.1 SSW 15 24 8 13 1003.1 1003.1 0.0
07/10:00pm 16.0 13.0 11.8 76 2.3 SSW 19 32 10 17 1002.7 1002.7 0.0
07/09:30pm 15.9 14.7 11.5 75 2.4 SSW 9 17 5 9 1002.2 1002.2 0.0
07/09:00pm 15.8 13.5 11.6 76 2.3 S 15 26 8 14 1001.9 1001.9 0.0
07/08:30pm 16.0 14.9 11.8 76 2.3 S 9 15 5 8 1001.6 1001.6 0.0
07/08:00pm 17.0 14.3 12.9 77 2.3 SSE 19 26 10 14 1001.4 1001.4 0.0
07/07:30pm 18.7 16.7 14.0 74 2.7 S 17 24 9 13 1001.0 1001.0 0.0
07/07:00pm 19.4 18.1 13.6 69 3.3 SSE 13 17 7 9 1000.8 1000.8 0.0
07/06:30pm 19.8 19.0 16.1 79 2.2 SE 15 22 8 12 1000.4 1000.4 0.0
07/06:00pm 20.6 20.8 15.8 74 2.9 SE 9 17 5 9 1000.5 1000.5 0.0
07/05:30pm 21.2 21.9 16.2 73 3.0 E 7 13 4 7 999.9 999.9 0.0
07/05:27pm 20.9 21.8 16.5 76 2.7 ENE 7 13 4 7 999.8 999.8 0.0
07/05:15pm 20.1 21.0 16.5 80 2.2 SE 7 13 4 7 1000.0 1000.0 0.0
07/05:00pm 20.5 21.4 16.7 79 2.3 ESE 7 13 4 7 1000.0 1000.0 0.0
07/04:30pm 22.5 22.6 17.4 73 3.1 E 13 19 7 10 1000.2 1000.2 0.0
07/04:00pm 20.8 20.9 16.6 77 2.6 E 11 17 6 9 1000.5 1000.5 0.0
07/03:30pm 22.6 23.0 16.2 67 3.9 ENE 9 15 5 8 1000.8 1000.8 0.0
07/03:00pm 21.4 21.0 16.1 72 3.2 ENE 13 20 7 11 1001.2 1001.2 0.0
07/02:30pm 20.6 19.3 14.7 69 3.5 NE 15 24 8 13 1001.2 1001.2 0.0
07/02:00pm 21.9 21.1 16.0 69 3.6 NE 15 26 8 14 1001.2 1001.2 0.0
07/01:30pm 22.2 21.3 15.8 67 3.8 NE 15 22 8 12 1001.5 1001.5 0.0
07/01:00pm 21.4 20.1 14.8 66 3.9 ENE 15 24 8 13 1001.8 1001.8 0.0
07/12:30pm 21.4 19.7 14.8 66 3.9 ENE 17 26 9 14 1001.8 1001.8 0.0
07/12:00pm 20.6 19.0 14.9 70 3.4 ENE 17 24 9 13 1002.1 1002.1 0.0
07/11:30am 20.4 19.2 15.0 71 3.2 ENE 15 22 8 12 1002.6 1002.6 0.0
07/11:00am 20.4 19.2 15.0 71 3.2 E 15 22 8 12 1002.8 1002.8 0.0
07/10:30am 20.2 18.5 14.8 71 3.2 E 17 22 9 12 1003.2 1003.2 0.0
07/10:00am 20.2 19.5 14.3 69 3.4 ENE 11 17 6 9 1003.5 1003.5 0.0
07/09:30am 19.7 19.3 14.1 70 3.2 E 9 13 5 7 1003.7 1003.7 0.0
07/09:00am 18.4 17.8 13.5 73 2.8 E 9 15 5 8 1004.1 1004.1 0.0
07/08:30am 17.8 18.7 12.9 73 2.7 CALM 0 7 0 4 1004.4 1004.4 0.0
07/08:00am 17.2 18.1 12.9 76 2.4 CALM 0 0 0 0 1004.4 1004.4 0.0
07/07:30am 16.4 17.2 12.4 77 2.2 CALM 0 0 0 0 1004.7 1004.7 0.0
07/07:00am 13.4 12.8 11.8 90 0.9 SSW 6 11 3 6 1004.8 1004.8 0.0
07/06:30am 11.3 10.3 11.0 98 0.2 SSW 7 11 4 6 1005.1 1005.1 0.0
07/06:00am 10.5 8.8 10.0 97 0.3 SSW 9 13 5 7 1005.0 1005.0 0.0
07/05:30am 10.7 9.1 10.2 97 0.3 SSW 9 11 5 6 1005.0 1005.0 0.0
07/05:00am 10.9 11.0 10.3 96 0.3 CALM 0 0 0 0 1005.0 1005.0 0.0
07/04:30am 11.7 11.9 10.4 92 0.7 CALM 0 0 0 0 1005.1 1005.1 0.0
07/04:00am 13.6 12.6 12.2 91 0.8 NW 9 13 5 7 1005.3 1005.3 0.0
07/03:30am 13.0 13.4 11.1 88 1.0 CALM 0 0 0 0 1005.4 1005.4 0.0
07/03:00am 13.4 13.7 10.9 85 1.3 CALM 0 0 0 0 1005.7 1005.7 0.0
07/02:30am 13.6 12.7 10.8 83 1.5 SSW 6 6 3 3 1006.1 1006.1 0.0
07/02:00am 13.8 13.3 10.6 81 1.7 S 4 7 2 4 1006.4 1006.4 0.0
07/01:30am 14.0 14.2 10.6 80 1.8 CALM 0 0 0 0 1006.7 1006.7 0.0
07/01:00am 13.8 13.0 9.8 77 2.1 NNE 4 7 2 4 1007.0 1007.0 0.0
07/12:30am 13.6 13.6 9.8 78 2.0 CALM 0 0 0 0 1007.4 1007.4 0.0
07/12:00am 13.8 13.7 9.3 74 2.3 CALM 0 0 0 0 1007.6 1007.6 0.0
 
Date/Time
EDT
Temp
°C
App
Temp
°C
Dew
Point
°C
Rel
Hum
%
Delta-T
°C
Wind Press
QNH
hPa
Press
MSL
hPa
Rain since
9am
mm
Dir  Spd
km/h
Gust
km/h
Spd
kts
Gust
kts
06/11:30pm 14.2 13.7 9.2 72 2.5 WSW 2 7 1 4 1007.9 1007.9 0.0
06/11:00pm 14.4 13.0 9.4 72 2.6 SSW 7 11 4 6 1008.1 1008.1 0.0
06/10:30pm 14.5 13.0 9.3 71 2.7 S 7 9 4 5 1008.4 1008.4 0.0
06/10:00pm 14.7 12.9 9.3 70 2.8 S 9 13 5 7 1008.4 1008.4 0.0
06/09:30pm 14.8 13.0 9.4 70 2.8 S 9 13 5 7 1008.2 1008.2 0.0
06/09:00pm 15.0 12.2 8.7 66 3.2 S 13 17 7 9 1007.9 1007.9 0.0
06/08:30pm 15.2 12.4 8.7 65 3.3 S 13 17 7 9 1007.7 1007.7 0.0
06/08:00pm 15.5 11.7 9.0 65 3.3 S 19 28 10 15 1007.4 1007.4 0.0
06/07:30pm 16.6 13.2 9.1 61 3.9 S 17 28 9 15 1007.1 1007.1 0.0
06/07:00pm 17.5 14.5 9.4 59 4.2 S 15 24 8 13 1006.9 1006.9 0.0
06/06:30pm 18.2 14.5 9.3 56 4.7 SSW 19 28 10 15 1006.5 1006.5 0.0
06/06:00pm 18.8 14.9 9.6 55 4.9 SSW 20 33 11 18 1005.9 1005.9 0.0
06/05:30pm 19.4 15.2 9.9 54 5.1 SSW 22 37 12 20 1005.6 1005.6 0.0
06/05:00pm 20.0 14.8 10.4 54 5.2 SSW 28 46 15 25 1005.3 1005.3 0.0
06/04:50pm 19.9 14.6 9.8 52 5.4 SSW 28 46 15 25 1005.4 1005.4 0.0
06/04:30pm 20.3 15.4 10.1 52 5.5 SSW 26 39 14 21 1005.6 1005.6 0.0
06/04:00pm 21.0 16.5 10.2 50 5.9 SSW 24 37 13 20 1005.8 1005.8 0.0
06/03:30pm 21.3 16.9 10.5 50 5.9 SSW 24 35 13 19 1006.2 1006.2 0.0
06/03:00pm 22.0 18.6 11.4 51 5.9 SSW 20 35 11 19 1006.2 1006.2 0.0
06/02:30pm 21.4 17.1 10.9 51 5.8 S 24 39 13 21 1006.3 1006.3 0.0
06/02:00pm 20.7 16.3 10.5 52 5.6 SW 24 39 13 21 1006.7 1006.7 0.0
06/01:30pm 21.9 18.4 11.0 50 6.0 SW 20 37 11 20 1006.9 1006.9 0.0
06/01:00pm 22.1 19.0 11.5 51 5.9 SW 19 32 10 17 1007.2 1007.2 0.0
06/12:30pm 19.9 16.5 11.4 58 4.7 SSW 20 33 11 18 1007.6 1007.6 0.0
06/12:00pm 19.9 17.4 11.1 57 4.8 SW 15 26 8 14 1007.6 1007.6 0.0
06/11:30am 20.0 17.0 11.8 59 4.5 SW 19 30 10 16 1007.8 1007.8 0.0
06/11:00am 18.3 15.2 12.1 67 3.4 SW 20 33 11 18 1007.9 1007.9 0.0
06/10:30am 18.5 15.4 12.3 67 3.4 SSW 20 32 11 17 1008.0 1008.0 0.0
06/10:00am 18.9 14.9 11.7 63 4.0 SSW 24 37 13 20 1007.9 1007.9 0.0
06/09:30am 18.3 15.1 11.8 66 3.6 SSW 20 32 11 17 1008.0 1008.0 0.0
06/09:00am 18.3 15.7 12.1 67 3.4 SW 17 28 9 15 1008.1 1008.1 5.0

Other formats

Comma delimited format used in spreadsheet applications
http://www.bom.gov.au/fwo/IDN60801/IDN60801.95929.axf

JavaScript Object Notation format (JSON) in row-major order
http://www.bom.gov.au/fwo/IDN60801/IDN60801.95929.json

Data quality

Most of these data are generated automatically and are frequently updated. Quality checks on data are not normally performed. It is possible for incorrect values to appear. Refer to information at About Latest Weather Observations and please check the disclaimer before using these data.